Verona, Mississippi
Current Conditions -  °F | °C
As of 3:53 AM on Wednesday 26 Nov 2014 (Local Time) from KTUP Reporting Station
Clear Clear  
Wind Chill: 30°   Ceiling: Unl
Heat Index: 30°   Visibility: 10mi
Dew Point: 25°   Wind: 3mph
Humidity: 82%   Direction: 70°ENE
Pressure: 30.16"   Gusts: NA
Location:  34.19°N, 88.72°W
Report Text: KTUP 260953Z AUTO 07003KT 10SM CLR M01/M04 A3016 RMK AO2 SLP215 T10111039
Loading
Personal Weather Stations






























Interactive Weather Map New forecast layout! Learn more

10-Day Weather Forecast

Advertisements
Track Severe Weather on mobile